Time;durP1;ratioP1;P1;durP2;ratioP2;P2;SDS_P1;SDS_P2;PMS_P1;PMS_P2;Temp;Humidity;BMP_temperature;BMP_pressure;BME280_temperature;BME280_humidity;BME280_pressure;Samples;Min_cycle;Max_cycle;Signal;HPM_P1;HPM_P2
2022/10/20 00:02:25;;;;;;;5.13;2.50;;;6.80;99.90;;;;;;5034665;28;20466;-43
2022/10/20 00:04:50;;;;;;;4.40;2.93;;;6.80;99.90;;;;;;5034626;28;20197;-43
2022/10/20 00:07:16;;;;;;;2.80;2.53;;;6.80;99.90;;;;;;5034120;28;20587;-43
2022/10/20 00:09:42;;;;;;;4.10;2.33;;;6.80;1.00;;;;;;5033314;28;20203;-43
2022/10/20 00:12:07;;;;;;;4.23;2.60;;;6.70;1.00;;;;;;5033021;28;20205;-44
2022/10/20 00:14:33;;;;;;;3.70;2.73;;;6.70;1.00;;;;;;5033930;28;20201;-44
2022/10/20 00:17:00;;;;;;;6.13;2.37;;;6.70;1.00;;;;;;5042353;28;20194;-43
2022/10/20 00:19:26;;;;;;;2.30;2.10;;;6.70;1.00;;;;;;5052307;28;20574;-44
2022/10/20 00:21:52;;;;;;;3.23;2.47;;;6.70;25.90;;;;;;5039301;28;20480;-44
2022/10/20 00:24:20;;;;;;;4.43;2.67;;;6.70;1.00;;;;;;5034176;28;20445;-43
2022/10/20 00:26:45;;;;;;;4.50;2.93;;;6.60;1.00;;;;;;5034957;28;20269;-44
2022/10/20 00:29:11;;;;;;;4.70;2.63;;;6.60;53.40;;;;;;5045389;28;20540;-44
2022/10/20 00:31:37;;;;;;;3.77;2.70;;;6.60;73.90;;;;;;5035834;28;20195;-44
2022/10/20 00:34:02;;;;;;;3.37;2.80;;;6.60;99.90;;;;;;5040778;28;20245;-43
2022/10/20 00:36:28;;;;;;;2.80;2.50;;;6.60;99.90;;;;;;5051900;28;20201;-44
2022/10/20 00:38:59;;;;;;;2.73;2.50;;;6.70;99.90;;;;;;5044728;28;20532;-44
2022/10/20 00:41:25;;;;;;;5.63;2.80;;;6.60;99.90;;;;;;5040256;28;20214;-44
2022/10/20 00:43:59;;;;;;;4.37;2.53;;;6.70;99.90;;;;;;5043531;28;20545;-44
2022/10/20 00:46:35;;;;;;;4.40;2.40;;;6.70;99.90;;;;;;5042145;28;20433;-44
2022/10/20 00:49:16;;;;;;;2.90;2.60;;;6.60;99.90;;;;;;5041136;28;20586;-44
2022/10/20 00:51:42;;;;;;;2.30;2.10;;;6.60;99.90;;;;;;5039823;28;20528;-44
2022/10/20 00:54:13;;;;;;;2.60;2.40;;;6.60;99.90;;;;;;5032136;28;20445;-44
2022/10/20 00:56:41;;;;;;;4.83;2.63;;;6.60;99.90;;;;;;5032881;28;20444;-44
2022/10/20 00:59:08;;;;;;;2.57;2.30;;;6.60;1.00;;;;;;5037681;28;20525;-44
2022/10/20 01:01:34;;;;;;;3.73;2.70;;;6.50;1.00;;;;;;5034532;28;20476;-44
2022/10/20 01:04:00;;;;;;;3.73;2.60;;;6.50;1.00;;;;;;5038133;28;20441;-44
2022/10/20 01:06:26;;;;;;;4.33;2.67;;;6.50;1.00;;;;;;5037773;28;20969;-44
2022/10/20 01:08:53;;;;;;;4.97;3.00;;;6.60;1.00;;;;;;5033102;28;20450;-44
2022/10/20 01:11:30;;;;;;;3.27;2.47;;;6.50;1.00;;;;;;5041610;28;20434;-43
2022/10/20 01:13:59;;;;;;;2.50;2.30;;;6.50;1.00;;;;;;5032654;28;20456;-44
2022/10/20 01:16:49;;;;;;;3.10;2.80;;;6.40;1.00;;;;;;5044174;28;20594;-44
2022/10/20 01:19:37;;;;;;;5.20;3.00;;;6.40;99.90;;;;;;5029717;28;20449;-44
2022/10/20 01:22:31;;;;;;;3.20;2.63;;;6.40;99.90;;;;;;5034629;28;20544;-44
2022/10/20 01:25:06;;;;;;;4.53;2.77;;;6.30;1.00;;;;;;5021863;28;20865;-44
2022/10/20 01:27:45;;;;;;;3.63;2.63;;;6.20;1.00;;;;;;5037697;28;21140;-45
2022/10/20 01:30:15;;;;;;;3.17;2.87;;;6.20;99.90;;;;;;5034868;28;20829;-45
2022/10/20 01:33:05;;;;;;;2.43;2.23;;;6.20;99.90;;;;;;5032592;28;20445;-44
2022/10/20 01:35:39;;;;;;;3.50;2.80;;;6.10;1.00;;;;;;5036620;28;20437;-44
2022/10/20 01:38:21;;;;;;;3.40;2.37;;;6.10;99.90;;;;;;5036244;28;20506;-44
2022/10/20 01:41:02;;;;;;;3.17;2.87;;;6.00;99.90;;;;;;5031321;28;20428;-44
2022/10/20 01:43:31;;;;;;;4.87;3.37;;;6.00;1.00;;;;;;5039798;28;20437;-45
2022/10/20 01:45:58;;;;;;;3.07;2.70;;;6.00;99.90;;;;;;5031846;28;20502;-44
2022/10/20 01:48:30;;;;;;;3.10;2.80;;;6.00;99.90;;;;;;5033556;28;20821;-45
2022/10/20 01:50:56;;;;;;;4.50;2.73;;;6.00;1.00;;;;;;5039845;28;20648;-44
2022/10/20 01:53:22;;;;;;;6.70;3.20;;;6.00;99.90;;;;;;5036929;28;20503;-44
2022/10/20 01:55:53;;;;;;;3.80;2.83;;;6.00;1.00;;;;;;5031637;28;20923;-44
2022/10/20 01:58:28;;;;;;;3.80;3.37;;;6.10;99.90;;;;;;5032179;28;20244;-45
2022/10/20 02:00:58;;;;;;;4.67;3.43;;;6.10;99.90;;;;;;5031667;28;20425;-44
2022/10/20 02:03:46;;;;;;;3.40;2.70;;;6.10;99.90;;;;;;5033276;28;20446;-44
2022/10/20 02:06:29;;;;;;;3.93;3.07;;;6.10;1.00;;;;;;5031530;28;20440;-44
2022/10/20 02:09:00;;;;;;;3.20;2.80;;;6.10;1.00;;;;;;5031792;28;20438;-44
2022/10/20 02:11:57;;;;;;;4.30;3.10;;;6.10;1.00;;;;;;5032998;28;20984;-44
2022/10/20 02:14:23;;;;;;;3.20;2.83;;;6.10;1.00;;;;;;5025672;28;20499;-44
2022/10/20 02:16:53;;;;;;;6.53;3.43;;;6.10;1.00;;;;;;5032302;28;20450;-44
2022/10/20 02:19:22;;;;;;;4.10;2.80;;;6.00;1.00;;;;;;5031391;28;20257;-44
2022/10/20 02:21:50;;;;;;;4.20;2.77;;;6.00;1.00;;;;;;5031489;28;20469;-44
2022/10/20 02:24:18;;;;;;;4.87;3.13;;;6.00;1.00;;;;;;5031813;28;20445;-44
2022/10/20 02:26:44;;;;;;;2.87;2.63;;;6.00;1.00;;;;;;5030804;28;20449;-44
2022/10/20 02:29:14;;;;;;;2.53;2.33;;;6.00;1.00;;;;;;5032025;28;20552;-44
2022/10/20 02:31:42;;;;;;;4.03;3.50;;;6.00;1.00;;;;;;5032166;28;20892;-45
2022/10/20 02:34:09;;;;;;;4.77;3.20;;;5.90;1.00;;;;;;5034910;28;20473;-45
2022/10/20 02:36:38;;;;;;;5.83;3.30;;;6.00;1.00;;;;;;5033482;28;20998;-45
2022/10/20 02:39:04;;;;;;;4.07;3.30;;;5.90;1.00;;;;;;5034838;28;20449;-44
2022/10/20 02:41:30;;;;;;;4.60;3.40;;;5.90;1.00;;;;;;5033767;28;20939;-45
2022/10/20 02:43:55;;;;;;;3.90;3.30;;;5.80;1.00;;;;;;5038363;28;20716;-45
2022/10/20 02:46:22;;;;;;;4.77;3.20;;;5.80;99.90;;;;;;5031846;28;20189;-44
2022/10/20 02:48:47;;;;;;;4.00;3.07;;;5.80;1.00;;;;;;5031625;28;20800;-45
2022/10/20 02:51:13;;;;;;;7.03;3.30;;;5.80;1.00;;;;;;5032306;28;20444;-45
2022/10/20 02:53:39;;;;;;;4.23;3.00;;;5.80;99.90;;;;;;5040604;28;20187;-45
2022/10/20 02:56:05;;;;;;;5.70;3.07;;;5.80;99.90;;;;;;5036549;28;20437;-45
2022/10/20 02:58:30;;;;;;;5.50;3.00;;;5.80;99.90;;;;;;5044128;28;20184;-44
2022/10/20 03:00:56;;;;;;;4.40;2.90;;;5.70;99.90;;;;;;5031472;28;20938;-45
2022/10/20 03:03:21;;;;;;;3.43;3.00;;;5.70;99.90;;;;;;5032021;28;20684;-44
2022/10/20 03:05:47;;;;;;;4.80;3.50;;;5.70;1.00;;;;;;5031817;28;20183;-45
2022/10/20 03:08:14;;;;;;;3.90;3.30;;;5.60;1.00;;;;;;5030859;28;20570;-45
2022/10/20 03:10:40;;;;;;;8.20;3.60;;;5.60;1.00;;;;;;5033583;28;20208;-45
2022/10/20 03:13:06;;;;;;;5.00;3.30;;;5.60;1.00;;;;;;5035891;28;20436;-45
2022/10/20 03:15:32;;;;;;;5.23;3.20;;;5.60;1.00;;;;;;5041271;28;20445;-45
2022/10/20 03:17:57;;;;;;;4.90;3.40;;;5.50;1.00;;;;;;5033875;28;20440;-45
2022/10/20 03:20:23;;;;;;;4.40;3.27;;;5.50;8.80;;;;;;5039057;28;20194;-45
2022/10/20 03:22:48;;;;;;;3.30;3.00;;;5.50;36.90;;;;;;5030421;28;20206;-45
2022/10/20 03:25:14;;;;;;;5.40;3.57;;;5.40;72.10;;;;;;5034717;28;20197;-45
2022/10/20 03:27:40;;;;;;;6.93;3.97;;;5.40;99.90;;;;;;5034213;28;20270;-45
2022/10/20 03:30:06;;;;;;;4.47;3.83;;;5.40;99.90;;;;;;5030277;28;20191;-45
2022/10/20 03:32:32;;;;;;;6.90;3.73;;;5.50;99.90;;;;;;5031439;28;20206;-45
2022/10/20 03:34:57;;;;;;;5.07;3.60;;;5.50;99.90;;;;;;5033248;28;20441;-45
2022/10/20 03:37:23;;;;;;;6.47;3.90;;;5.40;99.90;;;;;;5030627;28;20195;-45
2022/10/20 03:39:48;;;;;;;6.83;3.63;;;5.50;99.90;;;;;;5033734;28;20194;-48
2022/10/20 03:42:14;;;;;;;6.07;3.33;;;5.50;99.90;;;;;;5039910;28;20550;-45
2022/10/20 03:44:40;;;;;;;6.27;3.50;;;5.50;99.90;;;;;;5034398;28;20234;-45
2022/10/20 03:47:05;;;;;;;5.23;4.20;;;5.50;99.90;;;;;;5039232;28;20189;-45
2022/10/20 03:49:32;;;;;;;4.60;3.70;;;5.50;99.90;;;;;;5039062;28;20529;-45
2022/10/20 03:51:58;;;;;;;4.03;3.63;;;5.50;99.90;;;;;;5030755;28;20191;-45
2022/10/20 03:54:24;;;;;;;5.40;3.90;;;5.50;99.90;;;;;;5029652;28;20744;-45
2022/10/20 03:56:49;;;;;;;8.37;4.10;;;5.50;99.90;;;;;;5043452;28;20221;-45
2022/10/20 03:59:15;;;;;;;5.60;3.70;;;5.50;99.90;;;;;;5039468;28;20193;-45
2022/10/20 04:01:44;;;;;;;5.93;3.67;;;5.40;99.90;;;;;;5035379;28;20537;-45
2022/10/20 04:04:10;;;;;;;5.70;4.10;;;5.40;99.90;;;;;;5032045;28;20225;-45
2022/10/20 04:06:35;;;;;;;4.57;3.47;;;5.50;99.90;;;;;;5030280;28;20445;-45
2022/10/20 04:09:01;;;;;;;5.93;3.90;;;5.50;99.90;;;;;;5030366;28;20450;-45
2022/10/20 04:11:27;;;;;;;5.90;3.93;;;5.50;99.90;;;;;;5030628;28;20206;-45
2022/10/20 04:13:53;;;;;;;4.87;4.37;;;5.40;99.90;;;;;;5034871;28;20214;-45
2022/10/20 04:16:18;;;;;;;4.20;3.80;;;5.50;99.90;;;;;;5033930;28;20714;-45
2022/10/20 04:18:44;;;;;;;4.87;3.63;;;5.40;99.90;;;;;;5035315;28;20445;-45
2022/10/20 04:21:10;;;;;;;5.57;4.37;;;5.50;99.90;;;;;;5037237;28;20193;-45
2022/10/20 04:23:35;;;;;;;7.30;3.90;;;5.40;99.90;;;;;;5047908;28;20578;-46
2022/10/20 04:26:11;;;;;;;5.60;3.63;;;5.40;99.90;;;;;;5034289;28;20199;-45
2022/10/20 04:28:37;;;;;;;12.40;3.93;;;5.40;99.90;;;;;;5035486;28;20810;-45
2022/10/20 04:31:04;;;;;;;7.40;4.00;;;5.40;99.90;;;;;;5033622;28;20475;-45
2022/10/20 04:33:29;;;;;;;5.93;4.30;;;5.40;99.90;;;;;;5035369;28;20434;-45
2022/10/20 04:36:00;;;;;;;4.97;3.60;;;5.40;99.90;;;;;;5044992;28;20449;-45
2022/10/20 04:38:28;;;;;;;12.90;4.47;;;5.40;99.90;;;;;;5037235;28;20206;-45
2022/10/20 04:40:55;;;;;;;9.43;4.57;;;5.30;99.90;;;;;;5033502;28;20448;-45
2022/10/20 04:43:20;;;;;;;6.10;3.97;;;5.30;99.90;;;;;;5034149;28;20481;-45
2022/10/20 04:45:46;;;;;;;6.93;4.90;;;5.30;99.90;;;;;;5032702;28;20445;-45
2022/10/20 04:48:11;;;;;;;8.47;4.60;;;5.30;99.90;;;;;;5033542;28;20187;-45
2022/10/20 04:50:37;;;;;;;10.90;4.43;;;5.30;99.90;;;;;;5032563;28;20182;-45
2022/10/20 04:53:02;;;;;;;7.07;5.13;;;5.30;1.00;;;;;;5032168;28;20256;-45
2022/10/20 04:55:28;;;;;;;5.67;4.50;;;5.30;1.00;;;;;;5033537;28;20195;-46
2022/10/20 04:57:54;;;;;;;11.97;4.70;;;5.20;1.00;;;;;;5033526;28;20190;-45
2022/10/20 05:00:20;;;;;;;6.20;4.77;;;5.30;1.00;;;;;;5033244;28;20468;-46
2022/10/20 05:02:45;;;;;;;9.83;4.40;;;5.30;1.00;;;;;;5032824;28;20272;-45
2022/10/20 05:05:11;;;;;;;8.80;4.90;;;5.30;1.00;;;;;;5038107;28;20183;-45
2022/10/20 05:07:36;;;;;;;15.97;4.90;;;5.30;1.00;;;;;;5033491;28;20190;-46
2022/10/20 05:10:03;;;;;;;7.53;5.10;;;5.40;1.00;;;;;;5033005;28;20692;-45
2022/10/20 05:12:28;;;;;;;8.73;5.00;;;5.40;1.00;;;;;;5032994;28;20195;-45
2022/10/20 05:14:54;;;;;;;8.67;5.80;;;5.50;1.00;;;;;;5032499;28;20445;-45
2022/10/20 05:17:19;;;;;;;10.27;6.30;;;5.50;1.00;;;;;;5032731;28;20198;-45
2022/10/20 05:19:45;;;;;;;13.70;6.00;;;5.50;1.00;;;;;;5032928;28;20183;-45
2022/10/20 05:22:11;;;;;;;6.73;5.13;;;5.50;1.00;;;;;;5033085;28;20213;-45
2022/10/20 05:24:36;;;;;;;8.30;5.30;;;5.50;1.00;;;;;;5032993;28;20193;-45
2022/10/20 05:27:02;;;;;;;6.20;4.80;;;5.60;1.00;;;;;;5031362;28;20183;-45
2022/10/20 05:29:27;;;;;;;8.27;5.20;;;5.50;1.00;;;;;;5032927;28;20210;-45
2022/10/20 05:31:53;;;;;;;6.77;5.00;;;5.50;1.00;;;;;;5039577;28;20571;-45
2022/10/20 05:34:18;;;;;;;11.30;5.90;;;5.50;1.00;;;;;;5035082;28;20302;-45
2022/10/20 05:36:44;;;;;;;12.47;4.93;;;5.50;1.00;;;;;;5047603;28;20191;-45
2022/10/20 05:39:10;;;;;;;12.07;5.17;;;5.50;1.00;;;;;;5033470;28;20190;-45
2022/10/20 05:41:36;;;;;;;6.90;5.23;;;5.50;1.00;;;;;;5032568;28;20221;-46
2022/10/20 05:44:04;;;;;;;8.63;5.53;;;5.50;1.00;;;;;;5034147;28;20485;-45
2022/10/20 05:46:32;;;;;;;7.07;5.60;;;5.50;1.00;;;;;;5037091;28;20236;-46
2022/10/20 05:48:59;;;;;;;13.07;5.43;;;5.50;1.00;;;;;;5033665;28;20441;-45
2022/10/20 05:51:28;;;;;;;8.07;5.10;;;5.50;1.00;;;;;;5033208;28;20441;-45
2022/10/20 05:53:54;;;;;;;13.63;5.67;;;5.60;1.00;;;;;;5039927;28;20441;-45
2022/10/20 05:56:21;;;;;;;9.03;4.53;;;5.60;1.00;;;;;;5032700;28;20438;-46
2022/10/20 05:58:47;;;;;;;11.70;4.70;;;5.60;1.00;;;;;;5031426;28;20437;-46
2022/10/20 06:01:25;;;;;;;6.50;4.77;;;5.50;1.00;;;;;;5031856;28;20445;-46
2022/10/20 06:03:53;;;;;;;7.83;4.67;;;5.50;1.00;;;;;;5063602;28;20445;-45
2022/10/20 06:06:20;;;;;;;11.13;5.37;;;5.60;1.00;;;;;;5030825;28;20430;-46
2022/10/20 06:08:46;;;;;;;10.33;5.17;;;5.60;1.00;;;;;;5031859;28;20970;-46
2022/10/20 06:11:14;;;;;;;9.07;5.90;;;5.60;1.00;;;;;;5032173;28;20441;-45
2022/10/20 06:13:39;;;;;;;7.50;5.40;;;5.60;1.00;;;;;;5031574;28;20175;-45
2022/10/20 06:16:08;;;;;;;11.03;5.70;;;5.60;1.00;;;;;;5030456;28;20433;-46
2022/10/20 06:18:37;;;;;;;7.80;5.50;;;5.70;1.00;;;;;;5031243;28;20218;-46
2022/10/20 06:21:10;;;;;;;8.90;5.23;;;5.70;1.00;;;;;;5031601;28;20512;-46
2022/10/20 06:23:35;;;;;;;8.00;5.17;;;5.70;1.00;;;;;;5030923;28;20491;-46
2022/10/20 06:26:07;;;;;;;10.13;5.97;;;5.70;1.00;;;;;;5027356;28;21003;-46
2022/10/20 06:28:35;;;;;;;8.37;5.70;;;5.80;1.00;;;;;;5031850;28;20951;-46
2022/10/20 06:31:16;;;;;;;9.77;5.70;;;5.80;1.00;;;;;;5028678;28;20437;-47
2022/10/20 06:33:42;;;;;;;15.50;5.93;;;5.90;1.00;;;;;;5029361;28;20438;-46
2022/10/20 06:36:08;;;;;;;10.60;6.47;;;5.80;1.00;;;;;;5030485;28;20450;-46
2022/10/20 06:38:34;;;;;;;10.43;5.80;;;5.90;1.00;;;;;;5031045;28;20974;-46
2022/10/20 06:41:01;;;;;;;10.50;7.03;;;6.00;1.00;;;;;;5030169;28;20444;-46
2022/10/20 06:43:27;;;;;;;11.13;6.47;;;6.00;1.00;;;;;;5031448;28;20878;-46
2022/10/20 06:46:04;;;;;;;11.20;6.23;;;6.10;1.00;;;;;;5032087;28;20515;-45
2022/10/20 06:48:30;;;;;;;8.87;6.23;;;6.20;1.00;;;;;;5016655;28;20190;-46
2022/10/20 06:50:58;;;;;;;8.70;5.50;;;6.20;1.00;;;;;;5027073;28;20451;-46
2022/10/20 06:53:24;;;;;;;8.40;5.70;;;6.30;1.00;;;;;;5027252;28;20460;-46
2022/10/20 06:56:00;;;;;;;11.90;6.43;;;6.30;1.00;;;;;;5029615;28;20461;-46
2022/10/20 06:58:27;;;;;;;15.40;5.60;;;6.40;1.00;;;;;;5021307;28;20429;-45
2022/10/20 07:01:05;;;;;;;15.47;6.10;;;6.50;1.00;;;;;;5031573;28;20446;-46
2022/10/20 07:03:32;;;;;;;12.87;6.10;;;6.50;1.00;;;;;;5030556;28;20473;-46
2022/10/20 07:05:58;;;;;;;10.97;6.57;;;6.60;1.00;;;;;;5030138;28;20438;-45
2022/10/20 07:08:26;;;;;;;8.10;5.90;;;6.70;1.00;;;;;;5031057;28;20436;-46
2022/10/20 07:11:06;;;;;;;9.10;6.30;;;6.70;1.00;;;;;;5034039;28;20688;-46
2022/10/20 07:13:33;;;;;;;15.03;6.17;;;6.80;1.00;;;;;;5030832;28;20526;-45
2022/10/20 07:16:00;;;;;;;8.00;6.10;;;7.00;1.00;;;;;;5029376;28;20530;-45
2022/10/20 07:18:27;;;;;;;9.87;5.80;;;7.10;1.00;;;;;;5030778;28;20874;-45
2022/10/20 07:21:04;;;;;;;9.63;5.60;;;7.20;1.00;;;;;;5030363;28;20430;-45
2022/10/20 07:23:31;;;;;;;8.83;6.07;;;7.40;99.90;;;;;;5021235;28;20551;-45
2022/10/20 07:26:24;;;;;;;14.93;5.60;;;7.50;99.90;;;;;;5031060;28;20938;-45
2022/10/20 07:28:52;;;;;;;9.60;6.07;;;7.70;99.90;;;;;;5013644;28;20431;-45
2022/10/20 07:31:23;;;;;;;8.20;4.90;;;7.90;99.90;;;;;;5029690;28;20970;-45
2022/10/20 07:33:49;;;;;;;8.67;5.03;;;8.00;99.90;;;;;;5031032;28;20880;-44
2022/10/20 07:36:23;;;;;;;7.40;5.07;;;8.20;12.60;;;;;;5030454;28;20429;-45
2022/10/20 07:38:50;;;;;;;7.67;5.00;;;8.30;1.00;;;;;;5030911;28;20468;-44
2022/10/20 07:41:15;;;;;;;10.40;5.20;;;8.40;1.00;;;;;;5028003;28;20445;-44
2022/10/20 07:43:42;;;;;;;9.40;5.13;;;8.40;99.90;;;;;;5017405;28;20959;-44
2022/10/20 07:46:09;;;;;;;8.07;5.53;;;8.60;99.90;;;;;;5041887;28;20190;-44
2022/10/20 07:48:35;;;;;;;11.17;4.50;;;8.80;1.00;;;;;;5029965;28;20461;-44
2022/10/20 07:51:25;;;;;;;9.53;4.20;;;9.10;78.00;;;;;;5032437;28;20928;-44
2022/10/20 07:53:52;;;;;;;12.43;4.70;;;9.60;1.00;;;;;;5034604;28;20190;-44
2022/10/20 07:56:19;;;;;;;7.50;4.10;;;10.20;1.00;;;;;;5035042;28;20445;-43
2022/10/20 07:58:45;;;;;;;4.67;4.07;;;10.70;1.00;;;;;;5037635;28;20897;-42
2022/10/20 08:01:11;;;;;;;7.53;4.00;;;11.00;1.00;;;;;;5035921;28;20441;-43
2022/10/20 08:03:37;;;;;;;8.90;4.63;;;11.20;1.00;;;;;;5034450;28;20480;-43
2022/10/20 08:06:03;;;;;;;8.77;4.20;;;11.10;1.00;;;;;;5029303;28;20190;-43
2022/10/20 08:08:28;;;;;;;5.63;3.40;;;11.20;1.00;;;;;;5030822;28;20433;-42
2022/10/20 08:10:54;;;;;;;6.43;3.87;;;11.30;1.00;;;;;;5024357;28;20292;-42
2022/10/20 08:13:20;;;;;;;7.07;4.00;;;11.40;1.00;;;;;;5030286;28;20187;-42
2022/10/20 08:15:46;;;;;;;8.97;3.50;;;11.30;1.00;;;;;;5038572;28;20495;-42
2022/10/20 08:18:11;;;;;;;5.53;3.60;;;11.30;1.00;;;;;;5033745;28;20190;-42
2022/10/20 08:20:37;;;;;;;5.90;3.90;;;11.20;1.00;;;;;;5026708;28;20320;-42
2022/10/20 08:23:02;;;;;;;10.30;3.57;;;11.00;1.00;;;;;;5036274;28;21001;-42
2022/10/20 08:25:28;;;;;;;13.80;4.37;;;10.90;1.00;;;;;;5034433;28;20186;-44
2022/10/20 08:27:53;;;;;;;11.23;3.90;;;10.80;1.00;;;;;;5033467;28;20175;-42
2022/10/20 08:30:19;;;;;;;8.93;3.10;;;10.70;1.00;;;;;;5033640;28;20187;-42
2022/10/20 08:32:45;;;;;;;6.00;3.33;;;10.70;1.00;;;;;;5033984;28;20183;-42
2022/10/20 08:35:10;;;;;;;4.13;3.30;;;10.60;1.00;;;;;;5033849;28;20194;-43
2022/10/20 08:37:36;;;;;;;6.13;3.03;;;10.60;1.00;;;;;;5033756;28;20325;-43
2022/10/20 08:40:05;;;;;;;4.93;3.40;;;10.50;1.00;;;;;;5033681;28;20191;-42
2022/10/20 08:42:38;;;;;;;5.67;3.80;;;10.60;1.00;;;;;;5033691;28;20203;-43
2022/10/20 08:45:04;;;;;;;5.90;3.83;;;10.60;1.00;;;;;;5033299;28;20477;-42
2022/10/20 08:47:33;;;;;;;19.07;9.40;;;10.60;1.00;;;;;;5033699;28;20410;-42
2022/10/20 08:50:01;;;;;;;7.73;3.87;;;10.70;1.00;;;;;;5033600;28;20857;-42
2022/10/20 08:52:27;;;;;;;8.03;4.47;;;10.70;1.00;;;;;;5025506;28;20457;-42
2022/10/20 08:54:55;;;;;;;7.17;3.53;;;10.70;1.00;;;;;;5023727;28;21171;-44
2022/10/20 08:57:30;;;;;;;5.13;3.70;;;10.80;1.00;;;;;;5026325;28;20886;-42
2022/10/20 09:00:14;;;;;;;7.53;3.43;;;10.70;1.00;;;;;;5020396;28;20441;-43
2022/10/20 09:02:40;;;;;;;6.30;3.60;;;10.80;1.00;;;;;;5037967;28;20566;-41
2022/10/20 09:05:07;;;;;;;6.80;3.17;;;10.80;1.00;;;;;;5027797;28;20519;-43
2022/10/20 09:07:36;;;;;;;9.33;3.60;;;10.90;1.00;;;;;;5024595;28;20205;-41
2022/10/20 09:10:16;;;;;;;7.00;3.60;;;10.90;1.00;;;;;;5021954;28;20445;-41
2022/10/20 09:12:45;;;;;;;5.27;3.83;;;11.00;1.00;;;;;;5017601;28;20472;-43
2022/10/20 09:15:13;;;;;;;5.47;3.80;;;10.90;1.00;;;;;;5027407;28;20774;-42
2022/10/20 09:17:45;;;;;;;6.20;3.67;;;11.00;1.00;;;;;;5018721;28;20485;-42
2022/10/20 09:20:24;;;;;;;6.93;3.33;;;10.90;1.00;;;;;;5025258;28;20453;-42
2022/10/20 09:22:50;;;;;;;7.43;3.43;;;11.00;1.00;;;;;;5032999;28;20467;-42
2022/10/20 09:25:21;;;;;;;8.03;3.80;;;10.90;1.00;;;;;;5015424;28;20802;-42
2022/10/20 09:27:47;;;;;;;7.03;3.80;;;10.70;1.00;;;;;;5041485;28;20194;-43
2022/10/20 09:30:30;;;;;;;6.50;3.43;;;10.80;1.00;;;;;;5038877;28;20437;-42
2022/10/20 09:32:55;;;;;;;5.30;3.33;;;10.90;1.00;;;;;;5025417;28;20432;-42
2022/10/20 09:35:35;;;;;;;3.67;3.10;;;11.00;1.00;;;;;;5032776;28;21265;-42
2022/10/20 09:38:00;;;;;;;4.27;3.20;;;11.10;1.00;;;;;;5026427;28;20186;-41
2022/10/20 09:40:26;;;;;;;4.03;3.10;;;11.20;1.00;;;;;;5036850;28;20453;-41
2022/10/20 09:43:09;;;;;;;4.37;3.30;;;11.30;1.00;;;;;;5038761;28;20206;-43
2022/10/20 09:45:38;;;;;;;6.73;3.30;;;11.30;1.00;;;;;;5032467;28;20998;-43
2022/10/20 09:48:33;;;;;;;9.20;3.40;;;11.40;1.00;;;;;;5033056;28;20551;-43
2022/10/20 09:51:00;;;;;;;5.30;3.50;;;11.50;1.00;;;;;;5035309;28;20439;-43
2022/10/20 09:53:33;;;;;;;4.90;3.27;;;11.50;1.00;;;;;;5034598;28;20445;-43
2022/10/20 09:55:58;;;;;;;5.53;3.20;;;11.60;1.00;;;;;;5031456;28;20511;-42
2022/10/20 09:58:31;;;;;;;5.30;3.40;;;11.80;1.00;;;;;;5029111;28;20446;-42
2022/10/20 10:01:01;;;;;;;5.80;3.80;;;11.90;1.00;;;;;;5030662;28;20541;-42
2022/10/20 10:03:27;;;;;;;4.63;3.30;;;12.00;1.00;;;;;;5029065;28;20485;-42
2022/10/20 10:05:58;;;;;;;3.30;3.00;;;12.20;1.00;;;;;;5023632;28;20528;-43
2022/10/20 10:08:27;;;;;;;7.03;3.50;;;12.40;1.00;;;;;;5029882;28;20584;-42
2022/10/20 10:11:04;;;;;;;4.97;3.43;;;12.50;1.00;;;;;;5026832;28;20434;-43
2022/10/20 10:13:40;;;;;;;6.17;3.73;;;12.30;1.00;;;;;;5027803;28;20446;-43
2022/10/20 10:16:08;;;;;;;5.47;3.30;;;12.40;1.00;;;;;;5023218;28;20802;-43
2022/10/20 10:18:36;;;;;;;8.70;3.93;;;12.80;1.00;;;;;;5029744;28;20511;-43
2022/10/20 10:21:08;;;;;;;5.23;3.50;;;13.20;1.00;;;;;;5028463;28;21251;-42
2022/10/20 10:23:39;;;;;;;4.57;3.30;;;13.80;1.00;;;;;;5035943;28;20951;-42
2022/10/20 10:26:32;;;;;;;3.77;3.47;;;15.00;1.00;;;;;;5030617;28;20446;-41
2022/10/20 10:28:58;;;;;;;5.57;2.87;;;16.60;1.00;;;;;;5030419;28;20438;-41
2022/10/20 10:31:25;;;;;;;2.83;2.63;;;17.90;1.00;;;;;;5035014;28;20794;-41
2022/10/20 10:34:05;;;;;;;3.00;2.80;;;18.70;1.00;;;;;;5045586;28;20213;-41
2022/10/20 10:36:35;;;;;;;3.37;3.00;;;19.40;1.00;;;;;;5030948;28;20524;-42
2022/10/20 10:39:10;;;;;;;3.70;2.70;;;20.10;1.00;;;;;;5033126;28;20449;-42
2022/10/20 10:41:52;;;;;;;3.43;3.07;;;20.40;1.00;;;;;;5029715;28;20455;-42
2022/10/20 10:44:40;;;;;;;8.30;4.17;;;21.10;1.00;;;;;;5026566;28;20485;-42
2022/10/20 10:47:29;;;;;;;4.67;3.10;;;21.60;1.00;;;;;;5028490;28;20779;-42
2022/10/20 10:50:17;;;;;;;8.60;2.90;;;22.00;1.00;;;;;;5033558;28;20441;-42
2022/10/20 10:53:15;;;;;;;6.10;3.10;;;22.50;1.00;;;;;;5031339;28;20422;-42
2022/10/20 10:56:07;;;;;;;12.00;7.90;;;22.30;99.90;;;;;;5042830;28;20540;-41
2022/10/20 10:58:56;;;;;;;9.30;7.73;;;20.80;99.90;;;;;;5030211;28;20442;-42
2022/10/20 11:01:42;;;;;;;4.30;3.00;;;20.00;1.00;;;;;;5030934;28;20437;-42
2022/10/20 11:04:16;;;;;;;4.20;3.20;;;20.30;99.90;;;;;;5033288;28;20445;-42
2022/10/20 11:07:00;;;;;;;3.80;2.97;;;19.90;99.90;;;;;;5024492;28;20519;-43
2022/10/20 11:09:37;;;;;;;3.37;2.73;;;20.40;99.90;;;;;;5030802;28;21103;-43
2022/10/20 11:12:24;;;;;;;4.80;3.10;;;21.50;1.00;;;;;;5031285;28;20398;-43
2022/10/20 11:15:08;;;;;;;3.57;3.10;;;22.00;99.90;;;;;;5030651;28;20528;-42
2022/10/20 11:18:04;;;;;;;10.63;3.13;;;21.80;99.90;;;;;;5031047;28;20436;-42
2022/10/20 11:20:36;;;;;;;3.57;3.10;;;21.80;99.90;;;;;;5031204;28;20488;-42
2022/10/20 11:23:13;;;;;;;4.90;2.80;;;21.10;99.90;;;;;;5029185;28;20995;-41
2022/10/20 11:25:55;;;;;;;3.37;2.90;;;20.60;99.90;;;;;;5029786;28;20441;-42
2022/10/20 11:28:42;;;;;;;6.63;2.87;;;20.20;99.90;;;;;;5035320;28;21017;-42
2022/10/20 11:31:15;;;;;;;6.17;3.53;;;20.20;99.90;;;;;;5029579;28;20472;-41
2022/10/20 11:33:46;;;;;;;5.57;3.13;;;19.90;99.90;;;;;;5032849;28;20441;-42
2022/10/20 11:36:17;;;;;;;5.17;3.17;;;20.10;99.90;;;;;;5030779;28;20997;-41
2022/10/20 11:38:48;;;;;;;5.87;3.23;;;20.10;99.90;;;;;;5043149;28;20436;-42
2022/10/20 11:41:26;;;;;;;5.53;3.50;;;19.80;99.90;;;;;;5036451;28;20500;-41
2022/10/20 11:44:05;;;;;;;4.97;3.50;;;20.10;99.90;;;;;;5031297;28;20485;-42
2022/10/20 11:46:43;;;;;;;4.10;3.37;;;20.80;99.90;;;;;;5030389;28;20418;-42
2022/10/20 11:49:11;;;;;;;6.90;3.40;;;21.50;99.90;;;;;;5029419;28;20461;-41
2022/10/20 11:51:51;;;;;;;3.17;2.87;;;21.80;99.90;;;;;;5032549;28;20431;-41
2022/10/20 11:54:39;;;;;;;4.00;3.30;;;22.30;99.90;;;;;;5038612;28;20428;-42
2022/10/20 11:57:10;;;;;;;4.63;3.67;;;22.40;99.90;;;;;;5029809;28;20441;-41
2022/10/20 11:59:58;;;;;;;4.10;3.10;;;21.80;99.90;;;;;;5039599;28;20487;-41
2022/10/20 12:02:37;;;;;;;9.13;3.30;;;21.70;99.90;;;;;;5037839;28;20473;-41
2022/10/20 12:05:18;;;;;;;5.40;3.13;;;21.80;99.90;;;;;;5031274;28;20475;-41
2022/10/20 12:07:59;;;;;;;4.80;3.90;;;22.40;99.90;;;;;;5043637;28;20429;-41
2022/10/20 12:10:27;;;;;;;3.80;2.93;;;22.70;99.90;;;;;;5029439;28;20445;-42
2022/10/20 12:13:16;;;;;;;4.60;3.57;;;23.10;99.90;;;;;;5037839;28;20979;-42
2022/10/20 12:15:50;;;;;;;4.47;3.83;;;23.50;99.90;;;;;;5032294;28;20444;-42
2022/10/20 12:18:33;;;;;;;4.77;3.50;;;24.10;99.90;;;;;;5030520;28;20425;-42
2022/10/20 12:21:11;;;;;;;5.50;3.70;;;24.50;99.90;;;;;;5028909;28;20795;-42
2022/10/20 12:23:44;;;;;;;5.33;3.80;;;24.70;99.90;;;;;;5030736;28;20461;-41
2022/10/20 12:26:28;;;;;;;6.87;3.70;;;23.90;99.90;;;;;;5028363;28;20417;-42
2022/10/20 12:28:55;;;;;;;7.70;4.43;;;22.90;99.90;;;;;;5036566;28;20433;-41
2022/10/20 12:31:20;;;;;;;5.00;4.00;;;22.20;99.90;;;;;;5034767;28;20452;-41
2022/10/20 12:33:49;;;;;;;7.87;3.83;;;21.80;99.90;;;;;;5031507;28;20445;-41
2022/10/20 12:36:17;;;;;;;5.97;3.70;;;21.70;99.90;;;;;;5030377;28;20235;-41
2022/10/20 12:38:52;;;;;;;10.67;4.10;;;22.00;99.90;;;;;;5027074;28;20398;-41
2022/10/20 12:41:33;;;;;;;4.60;4.20;;;21.70;99.90;;;;;;5035342;28;20825;-41
2022/10/20 12:44:13;;;;;;;4.23;3.37;;;21.80;99.90;;;;;;5029994;28;20492;-40
2022/10/20 12:46:51;;;;;;;4.87;4.00;;;21.80;99.90;;;;;;5033283;28;20433;-40
2022/10/20 12:49:33;;;;;;;3.43;3.13;;;22.70;99.90;;;;;;5033916;28;20554;-40
2022/10/20 12:52:00;;;;;;;11.80;4.40;;;23.60;99.90;;;;;;5035098;28;20464;-41
2022/10/20 12:54:39;;;;;;;5.00;3.77;;;24.40;99.90;;;;;;5044701;28;20438;-40
2022/10/20 12:57:34;;;;;;;4.77;4.07;;;24.60;99.90;;;;;;5032416;28;20446;-40
2022/10/20 12:59:59;;;;;;;6.43;4.07;;;24.30;99.90;;;;;;5033323;28;20525;-41
2022/10/20 13:02:25;;;;;;;3.93;3.50;;;23.50;99.90;;;;;;5035517;28;20980;-40
2022/10/20 13:05:05;;;;;;;3.80;3.43;;;23.40;99.90;;;;;;5036962;28;20256;-41
2022/10/20 13:07:47;;;;;;;5.43;4.10;;;23.40;99.90;;;;;;5030355;28;20194;-41
2022/10/20 13:10:33;;;;;;;14.23;4.63;;;23.30;99.90;;;;;;5033045;28;20406;-41
2022/10/20 13:13:01;;;;;;;4.20;3.70;;;23.00;99.90;;;;;;5034611;28;20468;-41
2022/10/20 13:15:43;;;;;;;8.23;4.33;;;22.70;99.90;;;;;;5031279;28;20447;-41
2022/10/20 13:18:19;;;;;;;3.87;3.50;;;22.10;99.90;;;;;;5032891;28;20510;-40